Time;durP1;ratioP1;P1;durP2;ratioP2;P2;SDS_P1;SDS_P2;PMS_P1;PMS_P2;Temp;Humidity;BMP_temperature;BMP_pressure;BME280_temperature;BME280_humidity;BME280_pressure;Samples;Min_cycle;Max_cycle;Signal;HPM_P1;HPM_P2
2022/07/13 00:00:39;;;;;;;;;;;20.90;99.90;;;;;;5034541;28;19917;-78
2022/07/13 00:03:05;;;;;;;;;;;20.90;99.90;;;;;;5026341;28;19917;-78
2022/07/13 00:05:30;;;;;;;;;;;20.80;99.90;;;;;;5034104;28;19913;-81
2022/07/13 00:07:56;;;;;;;;;;;20.80;99.90;;;;;;5035453;28;19909;-76
2022/07/13 00:10:22;;;;;;;;;;;20.80;99.90;;;;;;5032834;28;19916;-79
2022/07/13 00:12:47;;;;;;;;;;;20.70;99.90;;;;;;5033638;28;19967;-80
2022/07/13 00:15:13;;;;;;;;;;;20.70;99.90;;;;;;5031492;28;19917;-80
2022/07/13 00:17:38;;;;;;;;;;;20.70;99.90;;;;;;5033411;28;20347;-79
2022/07/13 00:20:04;;;;;;;;;;;20.70;99.90;;;;;;5034870;28;20012;-79
2022/07/13 00:22:31;;;;;;;;;;;20.70;99.90;;;;;;5034507;28;19913;-79
2022/07/13 00:24:56;;;;;;;;;;;20.70;99.90;;;;;;5033388;28;19917;-75
2022/07/13 00:27:22;;;;;;;;;;;20.70;99.90;;;;;;5032993;28;19963;-80
2022/07/13 00:29:47;;;;;;;;;;;20.70;99.90;;;;;;5035247;28;19916;-78
2022/07/13 00:32:13;;;;;;;;;;;20.70;99.90;;;;;;5034366;28;19909;-80
2022/07/13 00:34:39;;;;;;;;;;;20.70;99.90;;;;;;5033840;28;19928;-80
2022/07/13 00:37:05;;;;;;;;;;;20.70;99.90;;;;;;5033381;28;20255;-78
2022/07/13 00:39:30;;;;;;;;;;;20.70;99.90;;;;;;5033888;28;19927;-77
2022/07/13 00:41:56;;;;;;;;;;;20.70;99.90;;;;;;5049515;28;19960;-77
2022/07/13 00:44:22;;;;;;;;;;;20.70;99.90;;;;;;5032814;28;19952;-75
2022/07/13 00:46:51;;;;;;;;;;;20.70;99.90;;;;;;5048865;28;19912;-78
2022/07/13 00:49:17;;;;;;;;;;;20.70;99.90;;;;;;5034142;28;19928;-77
2022/07/13 00:51:43;;;;;;;;;;;20.80;99.90;;;;;;5047457;28;19913;-77
2022/07/13 00:54:08;;;;;;;;;;;20.80;99.90;;;;;;5034169;28;19917;-76
2022/07/13 00:56:35;;;;;;;;;;;20.80;99.90;;;;;;5034125;28;19921;-76
2022/07/13 00:59:01;;;;;;;;;;;20.70;99.90;;;;;;5034476;28;20343;-75
2022/07/13 01:01:27;;;;;;;;;;;20.60;99.90;;;;;;5048426;28;20000;-76
2022/07/13 01:03:52;;;;;;;;;;;20.60;99.90;;;;;;5032535;28;20270;-75
2022/07/13 01:06:18;;;;;;;;;;;20.50;99.90;;;;;;5034927;28;19920;-77
2022/07/13 01:08:45;;;;;;;;;;;20.50;99.90;;;;;;5033906;28;19917;-81
2022/07/13 01:11:12;;;;;;;;;;;20.50;99.90;;;;;;5031531;28;20020;-76
2022/07/13 01:13:38;;;;;;;;;;;20.50;99.90;;;;;;5038088;28;20297;-76
2022/07/13 01:16:04;;;;;;;;;;;20.60;99.90;;;;;;5033494;28;20401;-79
2022/07/13 01:18:30;;;;;;;;;;;20.60;99.90;;;;;;5033505;28;20037;-76
2022/07/13 01:20:56;;;;;;;;;;;20.60;99.90;;;;;;5037732;28;19999;-75
2022/07/13 01:23:22;;;;;;;;;;;20.60;99.90;;;;;;5046348;28;19917;-78
2022/07/13 01:25:48;;;;;;;;;;;20.60;99.90;;;;;;5035907;28;19924;-76
2022/07/13 01:28:13;;;;;;;;;;;20.70;99.90;;;;;;5059410;28;20319;-80
2022/07/13 01:30:39;;;;;;;;;;;20.70;99.90;;;;;;5038626;28;19921;-76
2022/07/13 01:33:04;;;;;;;;;;;20.70;99.90;;;;;;5037586;28;19959;-77
2022/07/13 01:35:30;;;;;;;;;;;20.60;99.90;;;;;;5038631;28;20369;-80
2022/07/13 01:37:56;;;;;;;;;;;20.50;99.90;;;;;;5043988;28;19924;-77
2022/07/13 01:40:22;;;;;;;;;;;20.50;99.90;;;;;;5035957;28;19920;-75
2022/07/13 01:42:49;;;;;;;;;;;20.50;99.90;;;;;;5049990;28;19913;-77
2022/07/13 01:45:16;;;;;;;;;;;20.50;99.90;;;;;;5036257;28;20377;-78
2022/07/13 01:47:43;;;;;;;;;;;20.50;99.90;;;;;;5046287;28;20634;-76
2022/07/13 01:50:10;;;;;;;;;;;20.50;99.90;;;;;;5036038;28;19921;-77
2022/07/13 01:52:36;;;;;;;;;;;20.50;99.90;;;;;;5036650;28;19916;-76
2022/07/13 01:55:05;;;;;;;;;;;20.50;99.90;;;;;;5036212;28;19917;-80
2022/07/13 01:57:31;;;;;;;;;;;20.60;99.90;;;;;;5035656;28;19940;-76
2022/07/13 02:00:00;;;;;;;;;;;20.70;99.90;;;;;;5036645;28;20309;-74
2022/07/13 02:02:26;;;;;;;;;;;20.60;99.90;;;;;;5035065;28;20011;-76
2022/07/13 02:04:52;;;;;;;;;;;20.70;99.90;;;;;;5036265;28;20462;-75
2022/07/13 02:07:17;;;;;;;;;;;20.60;99.90;;;;;;5036228;28;19963;-77
2022/07/13 02:09:43;;;;;;;;;;;20.60;99.90;;;;;;5035706;28;20243;-76
2022/07/13 02:12:08;;;;;;;;;;;20.70;99.90;;;;;;5036546;28;20075;-83
2022/07/13 02:14:34;;;;;;;;;;;20.80;99.90;;;;;;5036061;28;19921;-76
2022/07/13 02:16:59;;;;;;;;;;;20.80;99.90;;;;;;5036646;28;19917;-81
2022/07/13 02:19:25;;;;;;;;;;;20.80;99.90;;;;;;5026741;28;20316;-78
2022/07/13 02:21:50;;;;;;;;;;;20.80;99.90;;;;;;5051064;28;20228;-74
2022/07/13 02:24:16;;;;;;;;;;;20.80;99.90;;;;;;5036158;28;19920;-76
2022/07/13 02:26:42;;;;;;;;;;;20.80;99.90;;;;;;5037088;28;19916;-76
2022/07/13 02:29:07;;;;;;;;;;;20.80;99.90;;;;;;5037652;28;19909;-77
2022/07/13 02:31:34;;;;;;;;;;;20.70;99.90;;;;;;5036040;28;19909;-83
2022/07/13 02:34:00;;;;;;;;;;;20.70;99.90;;;;;;5033351;28;19932;-81
2022/07/13 02:36:26;;;;;;;;;;;20.70;99.90;;;;;;5034665;28;19913;-74
2022/07/13 02:38:51;;;;;;;;;;;20.70;99.90;;;;;;5037060;28;19920;-81
2022/07/13 02:41:17;;;;;;;;;;;20.60;99.90;;;;;;5035593;28;19913;-75
2022/07/13 02:43:42;;;;;;;;;;;20.60;99.90;;;;;;5035492;28;19952;-77
2022/07/13 02:46:08;;;;;;;;;;;20.60;99.90;;;;;;5033902;28;19944;-77
2022/07/13 02:48:33;;;;;;;;;;;20.60;99.90;;;;;;5034956;28;19917;-76
2022/07/13 02:50:59;;;;;;;;;;;20.50;99.90;;;;;;5044266;28;19921;-78
2022/07/13 02:53:25;;;;;;;;;;;20.60;99.90;;;;;;5056993;28;19920;-76
2022/07/13 02:55:50;;;;;;;;;;;20.50;99.90;;;;;;5038685;28;19913;-75
2022/07/13 02:58:16;;;;;;;;;;;20.50;99.90;;;;;;5034526;28;19963;-75
2022/07/13 03:00:41;;;;;;;;;;;20.50;99.90;;;;;;5035205;28;19953;-77
2022/07/13 03:03:07;;;;;;;;;;;20.40;99.90;;;;;;5047934;28;19913;-76
2022/07/13 03:05:33;;;;;;;;;;;20.40;99.90;;;;;;5045937;28;19920;-75
2022/07/13 03:07:58;;;;;;;;;;;20.50;99.90;;;;;;5051902;28;19920;-75
2022/07/13 03:10:24;;;;;;;;;;;20.40;99.90;;;;;;5048885;28;19963;-75
2022/07/13 03:12:49;;;;;;;;;;;20.50;99.90;;;;;;5036761;28;19963;-76
2022/07/13 03:15:15;;;;;;;;;;;20.50;99.90;;;;;;5049343;28;19924;-75
2022/07/13 03:17:41;;;;;;;;;;;20.50;99.90;;;;;;5035529;28;20343;-75
2022/07/13 03:20:07;;;;;;;;;;;20.50;99.90;;;;;;5039597;28;19913;-75
2022/07/13 03:22:33;;;;;;;;;;;20.40;99.90;;;;;;5047756;28;19916;-75
2022/07/13 03:24:58;;;;;;;;;;;20.40;99.90;;;;;;5037180;28;19917;-75
2022/07/13 03:27:24;;;;;;;;;;;20.30;99.90;;;;;;5038348;28;19917;-75
2022/07/13 03:29:50;;;;;;;;;;;20.30;99.90;;;;;;5033234;28;20047;-76
2022/07/13 03:32:15;;;;;;;;;;;20.20;99.90;;;;;;5040175;28;19932;-75
2022/07/13 03:34:41;;;;;;;;;;;20.20;99.90;;;;;;5040308;28;21843;-76
2022/07/13 03:37:08;;;;;;;;;;;20.20;99.90;;;;;;5046766;28;20263;-76
2022/07/13 03:39:34;;;;;;;;;;;20.20;99.90;;;;;;5047426;28;19939;-76
2022/07/13 03:42:00;;;;;;;;;;;20.20;99.90;;;;;;5050935;28;20363;-75
2022/07/13 03:44:25;;;;;;;;;;;20.20;99.90;;;;;;5049403;28;20308;-76
2022/07/13 03:46:51;;;;;;;;;;;20.20;99.90;;;;;;5044495;28;19913;-79
2022/07/13 03:49:16;;;;;;;;;;;20.20;99.90;;;;;;5047538;28;19998;-76
2022/07/13 03:51:42;;;;;;;;;;;20.30;99.90;;;;;;5047114;28;19916;-75
2022/07/13 03:54:09;;;;;;;;;;;20.30;99.90;;;;;;5049412;28;19909;-76
2022/07/13 03:56:35;;;;;;;;;;;20.40;99.90;;;;;;5035634;28;20223;-75
2022/07/13 03:59:00;;;;;;;;;;;20.40;99.90;;;;;;5043709;28;20359;-75
2022/07/13 04:01:26;;;;;;;;;;;20.40;99.90;;;;;;5046569;28;19958;-75
2022/07/13 04:03:52;;;;;;;;;;;20.40;99.90;;;;;;5053128;28;19951;-78
2022/07/13 04:06:18;;;;;;;;;;;20.50;99.90;;;;;;5046716;28;19916;-76
2022/07/13 04:08:43;;;;;;;;;;;20.50;99.90;;;;;;5034620;28;20398;-75
2022/07/13 04:11:09;;;;;;;;;;;20.50;99.90;;;;;;5033709;28;19917;-76
2022/07/13 04:13:35;;;;;;;;;;;20.50;99.90;;;;;;5034422;28;19914;-75
2022/07/13 04:16:00;;;;;;;;;;;20.50;99.90;;;;;;5035242;28;19909;-75
2022/07/13 04:18:26;;;;;;;;;;;20.50;99.90;;;;;;5034025;28;19928;-75
2022/07/13 04:20:51;;;;;;;;;;;20.50;99.90;;;;;;5049831;28;19924;-75
2022/07/13 04:23:17;;;;;;;;;;;20.50;99.90;;;;;;5034396;28;19913;-75
2022/07/13 04:25:42;;;;;;;;;;;20.50;99.90;;;;;;5035075;28;19963;-75
2022/07/13 04:28:08;;;;;;;;;;;20.50;99.90;;;;;;5030829;28;19921;-76
2022/07/13 04:30:33;;;;;;;;;;;20.50;99.90;;;;;;5035489;28;19924;-77
2022/07/13 04:32:59;;;;;;;;;;;20.50;99.90;;;;;;5034758;28;19917;-75
2022/07/13 04:35:24;;;;;;;;;;;20.50;99.90;;;;;;5034875;28;19943;-75
2022/07/13 04:37:50;;;;;;;;;;;20.60;99.90;;;;;;5034056;28;19919;-75
2022/07/13 04:40:16;;;;;;;;;;;20.60;99.90;;;;;;5035738;28;19909;-75
2022/07/13 04:42:41;;;;;;;;;;;20.60;99.90;;;;;;5034878;28;19913;-75
2022/07/13 04:45:07;;;;;;;;;;;20.60;99.90;;;;;;5034169;28;19928;-76
2022/07/13 04:47:32;;;;;;;;;;;20.60;99.90;;;;;;5033306;28;20308;-74
2022/07/13 04:49:58;;;;;;;;;;;20.60;99.90;;;;;;5033702;28;20004;-75
2022/07/13 04:52:24;;;;;;;;;;;20.60;99.90;;;;;;5033896;28;19948;-75
2022/07/13 04:54:50;;;;;;;;;;;20.60;99.90;;;;;;5030648;28;19974;-75
2022/07/13 04:57:15;;;;;;;;;;;20.60;99.90;;;;;;5033736;28;19956;-76
2022/07/13 04:59:41;;;;;;;;;;;20.60;99.90;;;;;;5037761;28;19917;-75
2022/07/13 05:02:07;;;;;;;;;;;20.60;99.90;;;;;;5039029;28;20241;-75
2022/07/13 05:04:33;;;;;;;;;;;20.60;99.90;;;;;;5037813;28;19919;-75
2022/07/13 05:07:00;;;;;;;;;;;20.70;99.90;;;;;;5037272;28;20017;-75
2022/07/13 05:09:26;;;;;;;;;;;20.70;99.90;;;;;;5038254;28;19917;-75
2022/07/13 05:11:52;;;;;;;;;;;20.70;99.90;;;;;;5036884;28;20223;-75
2022/07/13 05:14:17;;;;;;;;;;;20.70;99.90;;;;;;5039105;28;19941;-75
2022/07/13 05:16:43;;;;;;;;;;;20.70;99.90;;;;;;5038013;28;20246;-75
2022/07/13 05:19:08;;;;;;;;;;;20.70;99.90;;;;;;5036896;28;20380;-76
2022/07/13 05:21:34;;;;;;;;;;;20.80;99.90;;;;;;5037706;28;20336;-75
2022/07/13 05:23:59;;;;;;;;;;;20.80;99.90;;;;;;5037908;28;20550;-76
2022/07/13 05:26:25;;;;;;;;;;;20.80;99.90;;;;;;5036407;28;19914;-75
2022/07/13 05:28:50;;;;;;;;;;;20.80;99.90;;;;;;5037062;28;19929;-75
2022/07/13 05:31:16;;;;;;;;;;;20.90;99.90;;;;;;5037458;28;19920;-75
2022/07/13 05:33:41;;;;;;;;;;;20.90;99.90;;;;;;5037959;28;19921;-74
2022/07/13 05:36:07;;;;;;;;;;;21.00;99.90;;;;;;5039973;28;20011;-75
2022/07/13 05:38:32;;;;;;;;;;;21.00;99.90;;;;;;5035942;28;20287;-74
2022/07/13 05:40:58;;;;;;;;;;;21.00;99.90;;;;;;5038035;28;19960;-75
2022/07/13 05:43:24;;;;;;;;;;;21.10;99.90;;;;;;5038421;28;20304;-74
2022/07/13 05:45:50;;;;;;;;;;;21.20;99.90;;;;;;5042492;28;19952;-76
2022/07/13 05:48:16;;;;;;;;;;;21.20;99.90;;;;;;5037119;28;19953;-76
2022/07/13 05:50:41;;;;;;;;;;;21.30;99.90;;;;;;5043623;28;19925;-74
2022/07/13 05:53:07;;;;;;;;;;;21.30;99.90;;;;;;5043085;28;19927;-75
2022/07/13 05:55:32;;;;;;;;;;;21.30;99.90;;;;;;5056958;28;20177;-74
2022/07/13 05:57:58;;;;;;;;;;;21.40;99.90;;;;;;5040919;28;20285;-77
2022/07/13 06:00:23;;;;;;;;;;;21.50;99.90;;;;;;5045632;28;19913;-80
2022/07/13 06:02:49;;;;;;;;;;;21.60;99.90;;;;;;5051646;28;19987;-78
2022/07/13 06:05:15;;;;;;;;;;;21.70;99.90;;;;;;5060810;28;19996;-79
2022/07/13 06:07:41;;;;;;;;;;;21.70;99.90;;;;;;5058012;28;19909;-81
2022/07/13 06:10:07;;;;;;;;;;;21.70;99.90;;;;;;5044698;28;20324;-80
2022/07/13 06:12:32;;;;;;;;;;;21.70;99.90;;;;;;5042140;28;20240;-80
2022/07/13 06:14:58;;;;;;;;;;;21.70;99.90;;;;;;5050120;28;19917;-77
2022/07/13 06:17:23;;;;;;;;;;;21.80;99.90;;;;;;5048879;28;19921;-80
2022/07/13 06:19:49;;;;;;;;;;;21.80;99.90;;;;;;5046014;28;19921;-77
2022/07/13 06:22:15;;;;;;;;;;;21.90;99.90;;;;;;5052405;28;19909;-75
2022/07/13 06:24:41;;;;;;;;;;;22.00;99.90;;;;;;5048364;28;20008;-81
2022/07/13 06:27:07;;;;;;;;;;;22.10;99.90;;;;;;5044857;28;19921;-75
2022/07/13 06:29:33;;;;;;;;;;;22.20;99.90;;;;;;5042291;28;20224;-76
2022/07/13 06:31:58;;;;;;;;;;;22.20;99.90;;;;;;5043495;28;19913;-75
2022/07/13 06:34:24;;;;;;;;;;;22.20;99.90;;;;;;5050531;28;20299;-75
2022/07/13 06:36:50;;;;;;;;;;;22.30;99.90;;;;;;5050311;28;20256;-81
2022/07/13 06:39:15;;;;;;;;;;;22.30;99.90;;;;;;5039948;28;19909;-76
2022/07/13 06:41:41;;;;;;;;;;;22.30;99.90;;;;;;5037627;28;19913;-77
2022/07/13 06:44:06;;;;;;;;;;;22.30;99.90;;;;;;5037255;28;19978;-76
2022/07/13 06:46:32;;;;;;;;;;;22.30;99.90;;;;;;5036930;28;20015;-75
2022/07/13 06:48:57;;;;;;;;;;;22.30;99.90;;;;;;5035825;28;19939;-77
2022/07/13 06:51:23;;;;;;;;;;;22.20;99.90;;;;;;5035952;28;19947;-79
2022/07/13 06:53:48;;;;;;;;;;;22.30;99.90;;;;;;5036604;28;20296;-76
2022/07/13 06:56:14;;;;;;;;;;;22.30;99.90;;;;;;5036855;28;19983;-76
2022/07/13 06:58:40;;;;;;;;;;;22.30;99.90;;;;;;5035379;28;19970;-78
2022/07/13 07:01:05;;;;;;;;;;;22.30;99.90;;;;;;5035870;28;19925;-76
2022/07/13 07:03:31;;;;;;;;;;;22.40;99.90;;;;;;5037116;28;20266;-76
2022/07/13 07:05:56;;;;;;;;;;;22.30;99.90;;;;;;5037045;28;19912;-75
2022/07/13 07:08:22;;;;;;;;;;;22.40;99.90;;;;;;5036602;28;19924;-78
2022/07/13 07:10:48;;;;;;;;;;;22.50;99.90;;;;;;5036486;28;19917;-78
2022/07/13 07:13:14;;;;;;;;;;;22.50;99.90;;;;;;5033646;28;19917;-75
2022/07/13 07:15:39;;;;;;;;;;;22.60;99.90;;;;;;5034425;28;20011;-75
2022/07/13 07:18:05;;;;;;;;;;;22.70;99.90;;;;;;5035493;28;19921;-76
2022/07/13 07:20:31;;;;;;;;;;;22.70;99.90;;;;;;5036578;28;19921;-76
2022/07/13 07:22:56;;;;;;;;;;;22.80;99.90;;;;;;5037862;28;19924;-75
2022/07/13 07:25:22;;;;;;;;;;;22.90;99.90;;;;;;5031621;28;19921;-74
2022/07/13 07:27:48;;;;;;;;;;;22.90;99.90;;;;;;5038108;28;20007;-76
2022/07/13 07:30:14;;;;;;;;;;;23.00;99.90;;;;;;5051272;28;19913;-74
2022/07/13 07:32:39;;;;;;;;;;;23.10;99.90;;;;;;5051257;28;20430;-75
2022/07/13 07:35:06;;;;;;;;;;;23.20;99.90;;;;;;5047956;28;20008;-83
2022/07/13 07:37:32;;;;;;;;;;;23.20;99.90;;;;;;5050788;28;20215;-76
2022/07/13 07:39:58;;;;;;;;;;;23.30;99.90;;;;;;5051414;28;19920;-76
2022/07/13 07:42:23;;;;;;;;;;;23.40;99.90;;;;;;5036400;28;19919;-77
2022/07/13 07:44:49;;;;;;;;;;;23.60;99.90;;;;;;5034534;28;19996;-76
2022/07/13 07:47:15;;;;;;;;;;;23.70;99.90;;;;;;5034287;28;20009;-76
2022/07/13 07:49:42;;;;;;;;;;;23.90;99.90;;;;;;5034541;28;19982;-75
2022/07/13 07:52:07;;;;;;;;;;;24.00;99.90;;;;;;5034894;28;19909;-84
2022/07/13 07:54:33;;;;;;;;;;;24.10;99.90;;;;;;5051559;28;20216;-78
2022/07/13 07:56:59;;;;;;;;;;;24.40;99.90;;;;;;5047328;28;19987;-75
2022/07/13 07:59:24;;;;;;;;;;;24.80;99.90;;;;;;5034337;28;19984;-75
2022/07/13 08:01:50;;;;;;;;;;;25.00;99.90;;;;;;5035707;28;19924;-77
2022/07/13 08:04:15;;;;;;;;;;;25.10;99.90;;;;;;5035471;28;19924;-82
2022/07/13 08:06:41;;;;;;;;;;;25.40;99.90;;;;;;5040953;28;19912;-76
2022/07/13 08:09:07;;;;;;;;;;;25.50;99.90;;;;;;5046345;28;19938;-76
2022/07/13 08:11:32;;;;;;;;;;;25.70;99.90;;;;;;5049585;28;20299;-76
2022/07/13 08:13:58;;;;;;;;;;;25.90;99.90;;;;;;5045560;28;20313;-76
2022/07/13 08:16:24;;;;;;;;;;;26.00;99.90;;;;;;5043202;28;19924;-76
2022/07/13 08:18:49;;;;;;;;;;;26.10;99.90;;;;;;5047304;28;19994;-81
2022/07/13 08:21:15;;;;;;;;;;;26.40;99.90;;;;;;5049279;28;19932;-75
2022/07/13 08:23:52;;;;;;;;;;;26.50;99.90;;;;;;5041018;28;19917;-75
2022/07/13 08:26:19;;;;;;;;;;;26.60;99.90;;;;;;5047863;28;19913;-84
2022/07/13 08:28:45;;;;;;;;;;;26.80;99.90;;;;;;5034744;28;19921;-80
2022/07/13 08:31:11;;;;;;;;;;;26.90;99.90;;;;;;5032625;28;20261;-75
2022/07/13 08:39:05;;;;;;;;;;;27.20;99.90;;;;;;5033904;28;19935;-81
2022/07/13 08:41:32;;;;;;;;;;;27.50;99.90;;;;;;5034386;28;19913;-76
2022/07/13 08:43:58;;;;;;;;;;;27.80;99.90;;;;;;5033821;28;19917;-75
2022/07/13 08:46:25;;;;;;;;;;;28.00;99.90;;;;;;5033547;28;19967;-75
2022/07/13 08:48:53;;;;;;;;;;;28.10;99.90;;;;;;5035814;28;19921;-76
2022/07/13 08:51:20;;;;;;;;;;;28.20;99.90;;;;;;5032701;28;19913;-75
2022/07/13 08:53:46;;;;;;;;;;;28.40;99.90;;;;;;5033708;28;19917;-76
2022/07/13 08:56:12;;;;;;;;;;;28.50;99.80;;;;;;5034327;28;19917;-76
2022/07/13 08:58:38;;;;;;;;;;;28.70;99.90;;;;;;5034858;28;19967;-76
2022/07/13 09:01:05;;;;;;;;;;;28.90;99.10;;;;;;5035870;28;20386;-75
2022/07/13 09:03:32;;;;;;;;;;;29.00;99.90;;;;;;5033632;28;20046;-76
2022/07/13 09:05:59;;;;;;;;;;;29.30;99.90;;;;;;5032484;28;20274;-77
2022/07/13 09:08:24;;;;;;;;;;;29.40;99.90;;;;;;5035049;28;20334;-76
2022/07/13 09:10:55;;;;;;;;;;;29.60;98.70;;;;;;5033652;28;19921;-75
2022/07/13 09:13:34;;;;;;;;;;;29.60;99.90;;;;;;5033696;28;19930;-74
2022/07/13 09:16:18;;;;;;;;;;;29.60;99.60;;;;;;5034332;28;19968;-76
2022/07/13 09:18:46;;;;;;;;;;;29.60;97.30;;;;;;5033692;28;20319;-77
2022/07/13 09:21:11;;;;;;;;;;;29.80;99.90;;;;;;5034731;28;19959;-76
2022/07/13 09:23:37;;;;;;;;;;;29.90;98.70;;;;;;5033258;28;19917;-75
2022/07/13 09:26:03;;;;;;;;;;;30.20;98.40;;;;;;5033109;28;20320;-75
2022/07/13 09:28:39;;;;;;;;;;;30.50;99.90;;;;;;5032900;28;19936;-75
2022/07/13 09:31:05;;;;;;;;;;;30.70;99.10;;;;;;5033127;28;19913;-75
2022/07/13 09:33:35;;;;;;;;;;;30.80;97.50;;;;;;5034028;28;19909;-76
2022/07/13 09:36:11;;;;;;;;;;;30.70;96.90;;;;;;5033523;28;19909;-75
2022/07/13 09:38:38;;;;;;;;;;;30.70;98.40;;;;;;5029819;28;19937;-78
2022/07/13 09:41:19;;;;;;;;;;;30.90;96.30;;;;;;5046862;28;19983;-75
2022/07/13 09:46:53;;;;;;;;;;;31.20;95.80;;;;;;5048952;28;20346;-78
2022/07/13 09:49:42;;;;;;;;;;;31.20;97.60;;;;;;5035767;28;19909;-76
2022/07/13 09:52:08;;;;;;;;;;;31.00;93.40;;;;;;5038199;28;20259;-76
2022/07/13 09:54:39;;;;;;;;;;;31.00;93.40;;;;;;5040883;28;19913;-75
2022/07/13 09:57:07;;;;;;;;;;;30.80;93.50;;;;;;5052485;28;19978;-76
2022/07/13 09:59:34;;;;;;;;;;;30.80;94.60;;;;;;5036347;28;19913;-75
2022/07/13 10:02:00;;;;;;;;;;;30.40;94.80;;;;;;5038596;28;19925;-78
2022/07/13 10:04:26;;;;;;;;;;;30.20;94.10;;;;;;5036357;28;19917;-82
2022/07/13 10:06:51;;;;;;;;;;;29.90;94.80;;;;;;5037064;28;19959;-75
2022/07/13 10:09:27;;;;;;;;;;;29.80;96.00;;;;;;5038212;28;19956;-76
2022/07/13 10:11:53;;;;;;;;;;;29.80;94.80;;;;;;5035059;28;20328;-76
2022/07/13 10:14:19;;;;;;;;;;;29.50;95.50;;;;;;5037846;28;19921;-75
2022/07/13 10:16:45;;;;;;;;;;;29.20;95.70;;;;;;5037116;28;19913;-77
2022/07/13 10:19:11;;;;;;;;;;;29.00;95.80;;;;;;5034781;28;20399;-75
2022/07/13 10:21:49;;;;;;;;;;;28.80;96.30;;;;;;5035931;28;19920;-76
2022/07/13 10:24:15;;;;;;;;;;;28.60;96.20;;;;;;5036418;28;19924;-74
2022/07/13 10:26:41;;;;;;;;;;;28.40;97.10;;;;;;5035648;28;19920;-75
2022/07/13 10:29:09;;;;;;;;;;;28.30;98.20;;;;;;5037137;28;19913;-75
2022/07/13 10:31:36;;;;;;;;;;;28.00;95.90;;;;;;5032820;28;19913;-76
2022/07/13 10:34:03;;;;;;;;;;;27.70;97.70;;;;;;5035015;28;20278;-75
2022/07/13 10:36:47;;;;;;;;;;;27.60;98.10;;;;;;5037156;28;19948;-81
2022/07/13 10:39:13;;;;;;;;;;;27.40;97.80;;;;;;5037754;28;20319;-77
2022/07/13 10:41:57;;;;;;;;;;;27.50;99.00;;;;;;5036631;28;19917;-77
2022/07/13 10:44:29;;;;;;;;;;;27.90;98.90;;;;;;5048033;28;19920;-77
2022/07/13 10:46:55;;;;;;;;;;;28.30;97.10;;;;;;5035593;28;20238;-78
2022/07/13 10:49:46;;;;;;;;;;;27.90;98.50;;;;;;5031488;28;19921;-75
2022/07/13 10:52:21;;;;;;;;;;;27.90;98.40;;;;;;5033587;28;19996;-80
2022/07/13 10:55:02;;;;;;;;;;;27.70;99.00;;;;;;5030150;28;20276;-79
2022/07/13 10:57:28;;;;;;;;;;;27.80;96.70;;;;;;5032937;28;19925;-76
2022/07/13 10:59:59;;;;;;;;;;;28.00;96.30;;;;;;5032488;28;19917;-80
2022/07/13 11:02:47;;;;;;;;;;;27.80;97.30;;;;;;5030050;28;19956;-79
2022/07/13 11:05:13;;;;;;;;;;;27.80;96.90;;;;;;5031496;28;20312;-81
2022/07/13 11:07:39;;;;;;;;;;;27.50;95.70;;;;;;5032355;28;19928;-76
2022/07/13 11:10:14;;;;;;;;;;;27.70;97.30;;;;;;5032005;28;19917;-76
2022/07/13 11:12:53;;;;;;;;;;;27.40;98.10;;;;;;5038706;28;19917;-79
2022/07/13 11:15:19;;;;;;;;;;;27.40;98.10;;;;;;5033348;28;19929;-76
2022/07/13 11:17:52;;;;;;;;;;;27.30;98.00;;;;;;5033578;28;19932;-76
2022/07/13 11:20:17;;;;;;;;;;;27.40;98.10;;;;;;5031848;28;19918;-74
2022/07/13 11:25:46;;;;;;;;;;;27.90;97.70;;;;;;5031070;28;19967;-76
2022/07/13 11:28:17;;;;;;;;;;;28.40;97.70;;;;;;5032555;28;19931;-75
2022/07/13 11:30:43;;;;;;;;;;;28.40;97.40;;;;;;5031435;28;19979;-76
2022/07/13 11:33:12;;;;;;;;;;;28.50;97.30;;;;;;5032512;28;20016;-78
2022/07/13 11:35:38;;;;;;;;;;;28.50;98.00;;;;;;5034919;28;19917;-76
2022/07/13 11:38:05;;;;;;;;;;;28.40;97.40;;;;;;5042609;28;20003;-78
2022/07/13 11:40:31;;;;;;;;;;;28.20;97.80;;;;;;5040102;28;19917;-76
2022/07/13 11:43:00;;;;;;;;;;;28.40;99.70;;;;;;5045021;28;19917;-76
2022/07/13 11:45:32;;;;;;;;;;;28.80;95.80;;;;;;5041014;28;19917;-76
2022/07/13 11:47:59;;;;;;;;;;;29.00;96.30;;;;;;5043970;28;20350;-76
2022/07/13 11:50:44;;;;;;;;;;;29.60;96.80;;;;;;5044617;28;20406;-76
2022/07/13 11:53:18;;;;;;;;;;;29.60;96.00;;;;;;5045786;28;20646;-77
2022/07/13 11:55:44;;;;;;;;;;;29.80;97.20;;;;;;5041599;28;19924;-77
2022/07/13 11:58:20;;;;;;;;;;;29.70;95.30;;;;;;5041495;28;19925;-75
2022/07/13 12:00:46;;;;;;;;;;;29.80;96.20;;;;;;5040722;28;19913;-75
2022/07/13 12:03:11;;;;;;;;;;;30.20;96.20;;;;;;5045116;28;19999;-79
2022/07/13 12:05:42;;;;;;;;;;;30.60;95.10;;;;;;5046933;28;19913;-76
2022/07/13 12:08:07;;;;;;;;;;;30.70;95.00;;;;;;5044001;28;19913;-76
2022/07/13 12:10:36;;;;;;;;;;;30.70;93.70;;;;;;5034056;28;19924;-76
2022/07/13 12:13:01;;;;;;;;;;;30.70;93.70;;;;;;5034337;28;20312;-74
2022/07/13 12:15:27;;;;;;;;;;;30.50;92.80;;;;;;5030509;28;19928;-77
2022/07/13 12:17:53;;;;;;;;;;;30.30;94.90;;;;;;5031144;28;19929;-76
2022/07/13 12:20:22;;;;;;;;;;;30.30;95.50;;;;;;5030939;28;20004;-75
2022/07/13 12:22:50;;;;;;;;;;;30.30;94.80;;;;;;5031551;28;20255;-76
2022/07/13 12:25:35;;;;;;;;;;;30.50;94.80;;;;;;5029587;28;19971;-79
2022/07/13 12:28:04;;;;;;;;;;;30.30;92.80;;;;;;5027228;28;19928;-76
2022/07/13 12:30:32;;;;;;;;;;;29.90;93.60;;;;;;5027871;28;19920;-75
2022/07/13 12:32:59;;;;;;;;;;;29.90;93.20;;;;;;5031536;28;19921;-77
2022/07/13 12:35:31;;;;;;;;;;;29.30;93.00;;;;;;5030336;28;19972;-76
2022/07/13 12:37:57;;;;;;;;;;;29.20;93.40;;;;;;5031232;28;19928;-76
2022/07/13 12:40:41;;;;;;;;;;;28.80;94.10;;;;;;5029811;28;19924;-76
2022/07/13 12:43:17;;;;;;;;;;;29.10;92.80;;;;;;5030477;28;19917;-78
2022/07/13 12:45:44;;;;;;;;;;;29.20;93.40;;;;;;5028735;28;19936;-77
2022/07/13 12:48:13;;;;;;;;;;;28.90;93.10;;;;;;5030162;28;20320;-75
2022/07/13 12:50:39;;;;;;;;;;;28.70;94.60;;;;;;5044838;28;20235;-77
2022/07/13 12:53:05;;;;;;;;;;;28.30;94.70;;;;;;5050875;28;19913;-80
2022/07/13 12:55:48;;;;;;;;;;;27.60;94.80;;;;;;5048876;28;19924;-77
2022/07/13 12:58:14;;;;;;;;;;;27.10;96.20;;;;;;5031264;28;19924;-77
2022/07/13 13:00:39;;;;;;;;;;;26.70;96.30;;;;;;5039249;28;20451;-77
2022/07/13 13:03:05;;;;;;;;;;;26.50;95.80;;;;;;5032743;28;19945;-77
2022/07/13 13:05:30;;;;;;;;;;;26.20;97.50;;;;;;5029927;28;19968;-75
2022/07/13 13:07:56;;;;;;;;;;;26.00;97.20;;;;;;5029269;28;19965;-83
2022/07/13 13:10:21;;;;;;;;;;;25.80;97.10;;;;;;5032596;28;19956;-75
2022/07/13 13:12:47;;;;;;;;;;;25.80;97.10;;;;;;5030662;28;19917;-76
2022/07/13 13:15:15;;;;;;;;;;;26.00;97.60;;;;;;5029270;28;19926;-78
2022/07/13 13:17:41;;;;;;;;;;;26.40;96.90;;;;;;5030806;28;19929;-76
2022/07/13 13:20:06;;;;;;;;;;;26.60;96.50;;;;;;5033687;28;19913;-75
2022/07/13 13:22:32;;;;;;;;;;;26.80;96.00;;;;;;5035143;28;19913;-80
2022/07/13 13:24:57;;;;;;;;;;;26.90;96.70;;;;;;5033517;28;20039;-75
2022/07/13 13:27:23;;;;;;;;;;;26.80;96.50;;;;;;5032991;28;19921;-76
2022/07/13 13:32:33;;;;;;;;;;;26.50;98.20;;;;;;5029535;28;19919;-74
2022/07/13 13:34:58;;;;;;;;;;;26.80;98.90;;;;;;5035057;28;20203;-74
2022/07/13 13:37:24;;;;;;;;;;;26.80;98.20;;;;;;5032875;28;19970;-74
2022/07/13 13:39:50;;;;;;;;;;;26.90;98.10;;;;;;5034779;28;19953;-74
2022/07/13 13:42:15;;;;;;;;;;;27.00;97.10;;;;;;5034704;28;19919;-73
2022/07/13 13:44:41;;;;;;;;;;;26.70;97.30;;;;;;5035154;28;20019;-77
2022/07/13 13:47:06;;;;;;;;;;;26.40;98.00;;;;;;5034366;28;20340;-79
2022/07/13 13:49:32;;;;;;;;;;;26.50;98.20;;;;;;5036499;28;20308;-76
2022/07/13 13:51:57;;;;;;;;;;;26.50;98.00;;;;;;5054745;28;20004;-74
2022/07/13 13:54:23;;;;;;;;;;;26.40;98.30;;;;;;5040120;28;20530;-73
2022/07/13 13:56:48;;;;;;;;;;;26.20;97.70;;;;;;5044082;28;19979;-73
2022/07/13 13:59:14;;;;;;;;;;;26.20;97.00;;;;;;5034249;28;19928;-74
2022/07/13 14:01:39;;;;;;;;;;;26.10;97.20;;;;;;5046012;28;19913;-73
2022/07/13 14:04:05;;;;;;;;;;;26.20;98.70;;;;;;5048879;28;19917;-75
2022/07/13 14:06:30;;;;;;;;;;;26.30;98.90;;;;;;5047712;28;19913;-74
2022/07/13 14:08:56;;;;;;;;;;;26.30;98.60;;;;;;5034507;28;20194;-76
2022/07/13 14:11:22;;;;;;;;;;;26.50;96.70;;;;;;5043475;28;20466;-75
2022/07/13 14:13:47;;;;;;;;;;;26.70;96.10;;;;;;5045340;28;19920;-74
2022/07/13 14:16:13;;;;;;;;;;;26.60;95.90;;;;;;5040637;28;19913;-75
2022/07/13 14:18:38;;;;;;;;;;;26.40;96.60;;;;;;5047944;28;19929;-74
2022/07/13 14:21:04;;;;;;;;;;;26.70;96.90;;;;;;5033993;28;19932;-75
2022/07/13 14:23:30;;;;;;;;;;;26.80;96.40;;;;;;5032573;28;20028;-73
2022/07/13 14:25:56;;;;;;;;;;;26.70;97.90;;;;;;5034344;28;19921;-73
2022/07/13 14:28:21;;;;;;;;;;;26.60;96.80;;;;;;5040834;28;19979;-74